createdAt,value
2019-03-12T00:02:19.462Z,16.87
2019-03-12T00:04:48.945Z,12.23
2019-03-12T00:07:18.244Z,8.07
2019-03-12T00:09:47.480Z,10.83
2019-03-12T00:12:16.977Z,9.33
2019-03-12T00:14:46.217Z,10.90
2019-03-12T00:17:15.792Z,11.13
2019-03-12T00:19:45.027Z,11.43
2019-03-12T00:22:14.248Z,12.03
2019-03-12T00:24:43.440Z,10.67
2019-03-12T00:27:13.512Z,10.00
2019-03-12T00:29:42.743Z,16.17
2019-03-12T00:32:12.310Z,7.70
2019-03-12T00:34:42.167Z,14.37
2019-03-12T00:37:13.691Z,12.67
2019-03-12T00:39:42.895Z,8.73
2019-03-12T00:42:12.169Z,12.87
2019-03-12T00:44:41.407Z,7.33
2019-03-12T00:47:10.874Z,9.47
2019-03-12T00:49:40.395Z,11.53
2019-03-12T00:52:28.816Z,9.00
2019-03-12T00:57:53.731Z,9.73
2019-03-12T01:00:23.001Z,9.53
2019-03-12T01:02:52.535Z,10.10
2019-03-12T01:05:22.054Z,9.37
2019-03-12T01:07:51.613Z,9.27
2019-03-12T01:10:20.822Z,6.80
2019-03-12T01:12:50.050Z,7.27
2019-03-12T01:15:19.542Z,7.70
2019-03-12T01:17:48.756Z,7.67
2019-03-12T01:20:17.957Z,8.67
2019-03-12T01:22:47.185Z,12.40
2019-03-12T01:25:16.461Z,7.50
2019-03-12T01:27:45.953Z,9.13
2019-03-12T01:30:55.358Z,11.70
2019-03-12T01:33:24.858Z,6.70
2019-03-12T01:35:54.122Z,13.13
2019-03-12T01:38:23.333Z,13.27
2019-03-12T01:40:52.523Z,12.03
2019-03-12T01:43:21.736Z,7.80
2019-03-12T01:45:50.956Z,9.43
2019-03-12T01:48:20.208Z,9.60
2019-03-12T01:50:49.393Z,7.03
2019-03-12T01:53:18.639Z,11.67
2019-03-12T01:55:47.838Z,4.93
2019-03-12T01:58:17.051Z,9.30
2019-03-12T02:00:46.277Z,8.73
2019-03-12T02:03:15.513Z,5.30
2019-03-12T02:05:44.733Z,5.13
2019-03-12T02:08:13.968Z,6.70
2019-03-12T02:10:43.177Z,5.73
2019-03-12T02:13:12.425Z,7.30
2019-03-12T02:15:41.880Z,8.13
2019-03-12T02:18:11.111Z,7.37
2019-03-12T02:20:40.305Z,4.27
2019-03-12T02:23:09.521Z,7.50
2019-03-12T02:25:38.715Z,8.27
2019-03-12T02:28:08.224Z,10.17
2019-03-12T02:30:37.435Z,3.20
2019-03-12T02:33:06.747Z,6.73
2019-03-12T02:35:35.954Z,4.73
2019-03-12T02:38:05.241Z,6.63
2019-03-12T02:40:34.409Z,8.13
2019-03-12T02:43:03.621Z,7.83
2019-03-12T02:45:32.839Z,4.43
2019-03-12T02:48:02.070Z,6.10
2019-03-12T02:50:31.249Z,9.07
2019-03-12T02:53:00.475Z,6.60
2019-03-12T02:55:29.667Z,6.67
2019-03-12T02:57:58.881Z,8.40
2019-03-12T03:00:28.063Z,7.37
2019-03-12T03:02:57.274Z,7.40
2019-03-12T03:05:26.610Z,7.97
2019-03-12T03:08:01.556Z,9.63
2019-03-12T03:10:30.817Z,10.20
2019-03-12T03:13:00.049Z,8.33
2019-03-12T03:18:23.736Z,7.43
2019-03-12T03:20:52.933Z,7.77
2019-03-12T03:23:22.154Z,8.00
2019-03-12T03:25:51.334Z,9.03
2019-03-12T03:28:20.884Z,11.37
2019-03-12T03:30:50.108Z,7.47
2019-03-12T03:33:19.322Z,12.33
2019-03-12T03:35:48.524Z,8.37
2019-03-12T03:38:17.720Z,7.30
2019-03-12T03:40:46.941Z,10.83
2019-03-12T03:43:16.149Z,8.20
2019-03-12T03:45:45.396Z,9.17
2019-03-12T03:48:14.616Z,8.87
2019-03-12T03:50:43.869Z,11.20
2019-03-12T03:53:13.065Z,12.03
2019-03-12T03:55:42.302Z,10.40
2019-03-12T03:58:11.521Z,11.40
2019-03-12T04:00:40.753Z,7.37
2019-03-12T04:03:09.959Z,12.17
2019-03-12T04:05:39.205Z,6.67
2019-03-12T04:08:08.401Z,9.30
2019-03-12T04:10:37.636Z,7.33
2019-03-12T04:13:06.838Z,7.53
2019-03-12T04:15:36.339Z,9.07
2019-03-12T04:18:05.520Z,8.83
2019-03-12T04:20:34.748Z,8.57
2019-03-12T04:23:03.965Z,4.67
2019-03-12T04:25:33.196Z,8.23
2019-03-12T04:28:02.415Z,6.80
2019-03-12T04:30:31.641Z,10.97
2019-03-12T04:33:00.837Z,11.10
2019-03-12T04:35:30.169Z,7.73
2019-03-12T04:37:59.442Z,10.10
2019-03-12T04:40:28.633Z,7.87
2019-03-12T04:42:57.835Z,8.93
2019-03-12T04:45:27.094Z,9.13
2019-03-12T04:47:56.277Z,11.87
2019-03-12T04:50:25.502Z,10.67
2019-03-12T04:52:54.701Z,9.07
2019-03-12T04:55:23.926Z,10.63
2019-03-12T04:57:53.120Z,9.07
2019-03-12T05:00:22.348Z,11.83
2019-03-12T05:02:51.561Z,12.37
2019-03-12T05:05:20.825Z,11.47
2019-03-12T05:07:50.037Z,11.23
2019-03-12T05:10:19.292Z,6.90
2019-03-12T05:12:48.503Z,13.10
2019-03-12T05:15:17.734Z,12.70
2019-03-12T05:17:47.466Z,11.97
2019-03-12T05:20:16.690Z,13.37
2019-03-12T05:22:46.056Z,7.97
2019-03-12T05:25:15.439Z,9.27
2019-03-12T05:27:44.777Z,10.23
2019-03-12T05:30:15.707Z,9.07
2019-03-12T05:32:45.218Z,10.13
2019-03-12T05:35:14.531Z,9.03
2019-03-12T05:37:43.887Z,6.63
2019-03-12T05:40:13.117Z,11.80
2019-03-12T05:42:42.353Z,10.73
2019-03-12T05:45:12.174Z,10.77
2019-03-12T05:47:41.412Z,10.33
2019-03-12T05:50:11.748Z,9.17
2019-03-12T05:52:41.349Z,9.83
2019-03-12T05:55:50.012Z,7.33
2019-03-12T05:58:19.240Z,7.77
2019-03-12T06:03:38.290Z,11.60
2019-03-12T06:06:07.525Z,8.40
2019-03-12T06:08:36.762Z,12.07
2019-03-12T06:11:06.390Z,11.27
2019-03-12T06:13:35.895Z,10.87
2019-03-12T06:16:05.118Z,20.53
2019-03-12T06:18:34.622Z,10.43
2019-03-12T06:21:03.817Z,9.10
2019-03-12T06:23:33.067Z,8.90
2019-03-12T06:26:02.268Z,7.83
2019-03-12T06:28:31.519Z,12.53
2019-03-12T06:31:20.688Z,9.77
2019-03-12T06:34:02.711Z,10.80
2019-03-12T06:36:50.829Z,11.23
2019-03-12T06:39:27.693Z,9.70
2019-03-12T06:42:54.229Z,9.20
2019-03-12T06:45:42.399Z,12.60
2019-03-12T06:48:17.374Z,9.80
2019-03-12T06:51:05.476Z,9.30
2019-03-12T06:53:53.642Z,13.13
2019-03-12T06:56:41.779Z,11.70
2019-03-12T06:59:29.954Z,10.57
2019-03-12T07:02:06.950Z,8.73
2019-03-12T07:04:55.122Z,13.83
2019-03-12T07:07:45.926Z,10.33
2019-03-12T07:10:33.832Z,11.17
2019-03-12T07:13:21.980Z,8.67
2019-03-12T07:16:10.149Z,10.43
2019-03-12T07:18:58.344Z,6.50
2019-03-12T07:21:46.456Z,11.80
2019-03-12T07:24:34.597Z,10.57
2019-03-12T07:27:42.157Z,9.00
2019-03-12T07:30:30.432Z,7.87
2019-03-12T07:33:18.614Z,9.30
2019-03-12T07:36:06.746Z,10.40
2019-03-12T07:38:44.155Z,11.30
2019-03-12T07:41:32.989Z,12.20
2019-03-12T07:44:12.467Z,10.03
2019-03-12T07:47:00.617Z,6.40
2019-03-12T07:49:48.857Z,5.30
2019-03-12T07:52:37.003Z,7.73
2019-03-12T07:55:25.257Z,9.63
2019-03-12T07:58:13.391Z,6.67
2019-03-12T08:01:00.949Z,6.30
2019-03-12T08:03:49.108Z,11.17
2019-03-12T08:06:37.333Z,8.07
2019-03-12T08:09:46.570Z,7.13
2019-03-12T08:12:34.195Z,10.73
2019-03-12T08:18:19.253Z,8.20
2019-03-12T08:21:07.894Z,6.50
2019-03-12T08:23:43.485Z,9.50
2019-03-12T08:26:32.439Z,7.33
2019-03-12T08:29:07.365Z,8.57
2019-03-12T08:40:13.108Z,7.37
2019-03-12T08:45:52.399Z,10.43
2019-03-12T08:48:40.544Z,8.10
2019-03-12T08:51:28.812Z,5.67
2019-03-12T08:54:16.943Z,6.73
2019-03-12T08:57:05.838Z,7.87
2019-03-12T09:02:50.618Z,7.27
2019-03-12T09:05:38.801Z,12.37
2019-03-12T09:08:46.318Z,6.53
2019-03-12T09:11:34.528Z,9.73
2019-03-12T09:14:22.657Z,11.70
2019-03-12T09:17:11.140Z,4.70
2019-03-12T09:19:59.373Z,8.37
2019-03-12T09:22:43.429Z,11.13
2019-03-12T09:25:32.174Z,7.27
2019-03-12T09:28:20.431Z,3.93
2019-03-12T09:31:08.614Z,6.23
2019-03-12T09:33:57.347Z,7.50
2019-03-12T09:36:45.591Z,6.53
2019-03-12T09:39:33.845Z,7.87
2019-03-12T09:42:22.306Z,9.63
2019-03-12T09:45:10.947Z,6.67
2019-03-12T09:48:00.799Z,10.37
2019-03-12T09:50:49.235Z,9.13
2019-03-12T09:53:58.142Z,8.40
2019-03-12T09:57:05.684Z,6.83
2019-03-12T09:59:53.891Z,7.10
2019-03-12T10:02:43.010Z,8.33
2019-03-12T10:08:41.859Z,9.67
2019-03-12T10:14:58.584Z,5.27
2019-03-12T10:18:06.846Z,3.87
2019-03-12T10:21:04.337Z,8.40
2019-03-12T10:26:48.265Z,10.73
2019-03-12T10:32:26.244Z,5.80
2019-03-12T10:35:03.158Z,7.07
2019-03-12T10:37:51.322Z,6.30
2019-03-12T10:40:39.816Z,5.40
2019-03-12T10:43:28.303Z,6.27
2019-03-12T10:46:04.364Z,6.53
2019-03-12T10:48:35.327Z,6.17
2019-03-12T10:51:13.697Z,7.07
2019-03-12T10:53:44.162Z,7.97
2019-03-12T10:56:13.475Z,10.50
2019-03-12T10:58:44.350Z,10.10
2019-03-12T11:01:15.295Z,7.60
2019-03-12T11:03:48.350Z,6.23
2019-03-12T11:06:18.936Z,7.60
2019-03-12T11:23:06.365Z,7.33
2019-03-12T11:28:30.618Z,6.33
2019-03-12T11:31:20.018Z,7.07
2019-03-12T11:36:50.551Z,9.37
2019-03-12T11:39:20.081Z,12.27
2019-03-12T11:41:49.499Z,9.63
2019-03-12T11:48:49.144Z,7.23
2019-03-12T11:55:04.123Z,6.80
2019-03-12T11:57:33.451Z,5.97
2019-03-12T12:00:40.601Z,5.70
2019-03-12T12:12:43.534Z,9.00
2019-03-12T12:15:13.469Z,5.57
2019-03-12T12:18:15.917Z,11.83
2019-03-12T12:34:16.693Z,7.80
2019-03-12T12:37:28.812Z,7.87
2019-03-12T12:39:58.146Z,5.30
2019-03-12T12:47:41.096Z,7.73
2019-03-12T13:12:38.429Z,6.10
2019-03-12T13:23:15.192Z,6.87
2019-03-12T13:25:44.793Z,8.90
2019-03-12T13:28:14.226Z,7.30
2019-03-12T13:52:12.041Z,8.40
2019-03-12T13:54:43.428Z,5.77
2019-03-12T13:57:12.890Z,5.10
2019-03-12T13:59:42.271Z,9.63
2019-03-12T14:02:12.065Z,5.83
2019-03-12T14:04:41.379Z,7.20
2019-03-12T14:10:00.419Z,5.00
2019-03-12T14:12:29.876Z,4.97
2019-03-12T14:14:59.158Z,2.87
2019-03-12T14:17:29.092Z,6.03
2019-03-12T14:20:37.758Z,3.37
2019-03-12T14:23:07.111Z,3.30
2019-03-12T14:28:32.113Z,6.87
2019-03-12T14:31:01.368Z,6.90
2019-03-12T14:33:30.889Z,4.50
2019-03-12T14:36:00.272Z,4.67
2019-03-12T14:38:29.516Z,5.63
2019-03-12T14:40:59.128Z,6.07
2019-03-12T14:43:28.564Z,6.77
2019-03-12T14:45:57.769Z,5.40
2019-03-12T14:54:23.273Z,5.23
2019-03-12T14:56:52.514Z,4.60
2019-03-12T14:59:21.772Z,4.53
2019-03-12T15:01:51.435Z,6.57
2019-03-12T15:04:20.682Z,3.07
2019-03-12T15:06:50.114Z,6.80
2019-03-12T15:09:19.603Z,6.27
2019-03-12T15:14:45.241Z,4.57
2019-03-12T15:17:14.483Z,5.23
2019-03-12T15:19:43.719Z,3.40
2019-03-12T15:22:13.020Z,4.33
2019-03-12T15:24:42.229Z,4.50
2019-03-12T15:27:11.478Z,4.67
2019-03-12T15:29:40.683Z,6.23
2019-03-12T15:32:10.258Z,4.10
2019-03-12T15:34:39.511Z,3.83
2019-03-12T15:37:08.810Z,4.73
2019-03-12T15:39:38.111Z,4.73
2019-03-12T15:42:07.342Z,3.47
2019-03-12T15:44:36.619Z,3.37
2019-03-12T15:47:08.820Z,6.73
2019-03-12T15:49:37.877Z,6.10
2019-03-12T15:52:08.735Z,4.43
2019-03-12T15:54:38.068Z,6.00
2019-03-12T15:57:07.472Z,6.37
2019-03-12T15:59:37.587Z,7.10
2019-03-12T16:02:06.791Z,5.60
2019-03-12T16:04:36.049Z,6.23
2019-03-12T16:07:05.291Z,5.27
2019-03-12T16:09:34.607Z,6.23
2019-03-12T16:12:03.849Z,3.73
2019-03-12T16:14:33.128Z,5.87
2019-03-12T16:17:02.316Z,3.87
2019-03-12T16:19:31.627Z,5.63
2019-03-12T16:22:00.935Z,4.03
2019-03-12T16:24:30.658Z,9.43
2019-03-12T16:27:03.141Z,6.90
2019-03-12T16:32:07.067Z,7.13
2019-03-12T16:34:55.497Z,5.60
2019-03-12T16:37:26.659Z,4.83
2019-03-12T16:40:14.949Z,6.57
2019-03-12T16:43:03.536Z,5.47
2019-03-12T16:45:32.822Z,2.83
2019-03-12T16:48:02.079Z,3.57
2019-03-12T16:51:16.414Z,4.03
2019-03-12T16:53:45.797Z,6.10
2019-03-12T16:56:15.072Z,3.87
2019-03-12T16:58:44.421Z,6.23
2019-03-12T17:01:13.729Z,3.53
2019-03-12T17:03:43.023Z,5.00
2019-03-12T17:06:13.241Z,4.73
2019-03-12T17:11:53.869Z,4.87
2019-03-12T17:17:15.331Z,7.60
2019-03-12T17:19:44.664Z,4.40
2019-03-12T17:22:13.931Z,5.13
2019-03-12T17:24:43.597Z,2.77
2019-03-12T17:27:12.916Z,5.03
2019-03-12T17:32:30.457Z,3.20
2019-03-12T17:35:20.499Z,4.57
2019-03-12T17:37:49.817Z,4.83
2019-03-12T17:40:20.181Z,4.83
2019-03-12T17:42:49.470Z,4.90
2019-03-12T17:45:20.003Z,2.87
2019-03-12T17:47:49.303Z,3.43
2019-03-12T17:50:18.540Z,3.47
2019-03-12T17:53:07.462Z,7.73
2019-03-12T17:55:36.690Z,4.50
2019-03-12T17:58:06.538Z,3.60
2019-03-12T18:03:25.882Z,2.80
2019-03-12T18:05:55.276Z,5.00
2019-03-12T18:08:24.679Z,5.13
2019-03-12T18:10:54.462Z,7.37
2019-03-12T18:13:43.662Z,3.90
2019-03-12T18:16:13.048Z,3.67
2019-03-12T18:18:44.434Z,4.30
2019-03-12T18:24:47.761Z,6.07
2019-03-12T18:27:17.150Z,3.63
2019-03-12T18:29:49.100Z,3.70
2019-03-12T18:37:50.860Z,5.57
2019-03-12T18:40:20.370Z,2.47
2019-03-12T18:42:49.873Z,5.47
2019-03-12T18:45:44.156Z,3.50
2019-03-12T18:48:13.662Z,3.87
2019-03-12T18:50:42.892Z,4.67
2019-03-12T18:53:12.205Z,4.07
2019-03-12T18:56:02.184Z,2.70
2019-03-12T18:58:31.436Z,3.93
2019-03-12T19:01:12.320Z,5.93
2019-03-12T19:03:41.569Z,5.03
2019-03-12T19:06:10.834Z,3.67
2019-03-12T19:08:59.455Z,5.53
2019-03-12T19:11:28.640Z,4.30
2019-03-12T19:13:58.302Z,5.90
2019-03-12T19:16:27.896Z,3.37
2019-03-12T19:18:57.415Z,6.90
2019-03-12T19:21:26.742Z,2.67
2019-03-12T19:23:56.001Z,3.90
2019-03-12T19:26:25.295Z,5.07
2019-03-12T19:28:54.572Z,2.23
2019-03-12T19:31:42.719Z,3.13
2019-03-12T19:36:51.572Z,2.67
2019-03-12T19:39:21.258Z,3.70
2019-03-12T19:41:50.856Z,3.37
2019-03-12T19:44:20.105Z,4.07
2019-03-12T19:46:49.387Z,3.53
2019-03-12T19:49:18.697Z,3.27
2019-03-12T19:51:47.925Z,2.80
2019-03-12T19:54:17.636Z,6.13
2019-03-12T19:56:46.952Z,3.43
2019-03-12T19:59:16.674Z,4.03
2019-03-12T20:01:46.733Z,3.77
2019-03-12T20:04:16.258Z,5.27
2019-03-12T20:06:45.619Z,4.53
2019-03-12T20:09:56.121Z,4.30
2019-03-12T20:13:03.402Z,5.43
2019-03-12T20:16:11.018Z,2.57
2019-03-12T20:19:18.651Z,4.37
2019-03-12T20:22:35.461Z,3.20
2019-03-12T20:25:42.900Z,1.73
2019-03-12T20:28:50.271Z,3.97
2019-03-12T20:31:57.757Z,3.77
2019-03-12T20:35:05.412Z,6.00
2019-03-12T20:38:13.117Z,4.77
2019-03-12T20:41:20.737Z,5.97
2019-03-12T20:44:28.054Z,3.60
2019-03-12T20:47:35.538Z,3.60
2019-03-12T20:50:42.864Z,3.27
2019-03-12T20:54:00.469Z,4.97
2019-03-12T20:57:07.762Z,3.30
2019-03-12T21:00:15.306Z,6.23
2019-03-12T21:03:24.918Z,5.07
2019-03-12T21:06:40.892Z,5.47
2019-03-12T21:09:48.225Z,1.77
2019-03-12T21:12:57.175Z,5.40
2019-03-12T21:16:04.471Z,2.10
2019-03-12T21:19:12.016Z,4.40
2019-03-12T21:22:19.888Z,5.20
2019-03-12T21:25:27.171Z,1.00
2019-03-12T21:28:53.705Z,1.37
2019-03-12T21:31:23.405Z,1.43
2019-03-12T21:33:52.618Z,1.33
2019-03-12T21:36:22.991Z,0.70
2019-03-12T21:38:52.237Z,0.87
2019-03-12T21:41:21.933Z,2.20
2019-03-12T21:43:51.768Z,1.47
2019-03-12T21:46:21.749Z,0.50
2019-03-12T21:48:51.697Z,1.63
2019-03-12T21:51:20.982Z,1.53
2019-03-12T21:53:50.488Z,1.33
2019-03-12T21:56:38.807Z,1.40
2019-03-12T21:59:08.002Z,1.07
2019-03-12T22:01:37.249Z,1.07
2019-03-12T22:04:06.566Z,0.67
2019-03-12T22:06:35.829Z,1.37
2019-03-12T22:12:17.702Z,1.90
2019-03-12T22:14:47.292Z,2.00
2019-03-12T22:22:46.928Z,2.27
2019-03-12T22:25:16.367Z,4.80
2019-03-12T22:27:45.928Z,3.10
2019-03-12T22:30:18.056Z,1.73
2019-03-12T22:32:47.428Z,2.33
2019-03-12T22:35:16.703Z,1.40
2019-03-12T22:37:45.915Z,1.60
2019-03-12T22:40:15.237Z,1.57
2019-03-12T22:42:44.564Z,1.93
2019-03-12T22:45:16.462Z,1.97
2019-03-12T22:47:46.025Z,1.87
2019-03-12T22:50:15.515Z,2.47
2019-03-12T22:52:48.125Z,2.37
2019-03-12T22:55:17.502Z,3.50
2019-03-12T22:57:47.084Z,3.30
2019-03-12T23:00:55.892Z,3.90
2019-03-12T23:03:25.110Z,3.40
2019-03-12T23:05:54.356Z,3.17
2019-03-12T23:08:42.686Z,4.93
2019-03-12T23:14:20.602Z,3.57
2019-03-12T23:16:50.187Z,4.47
2019-03-12T23:19:19.719Z,3.30
2019-03-12T23:21:48.904Z,3.33
2019-03-12T23:24:18.144Z,2.57
2019-03-12T23:26:47.350Z,4.40
2019-03-12T23:29:16.580Z,3.70
2019-03-12T23:31:46.049Z,2.47
2019-03-12T23:34:15.274Z,1.80
2019-03-12T23:36:44.599Z,1.67
2019-03-12T23:39:16.212Z,2.60
2019-03-12T23:41:45.476Z,1.53
2019-03-12T23:44:14.824Z,2.53
2019-03-12T23:46:44.036Z,3.23
2019-03-12T23:49:13.247Z,1.30
2019-03-12T23:51:42.457Z,3.70
2019-03-12T23:54:51.360Z,2.63
2019-03-12T23:57:20.821Z,4.07
2019-03-12T23:59:50.410Z,3.00
